sensor_id;sensor_type;location;lat;lon;timestamp;temperature;humidity
326;DHT22;150;52.352;14.058;2023-04-05T00:02:19;2.00;29.90
326;DHT22;150;52.352;14.058;2023-04-05T00:04:45;2.00;29.90
326;DHT22;150;52.352;14.058;2023-04-05T00:07:17;2.00;29.90
326;DHT22;150;52.352;14.058;2023-04-05T00:09:46;1.90;30.60
326;DHT22;150;52.352;14.058;2023-04-05T00:12:14;1.90;30.20
326;DHT22;150;52.352;14.058;2023-04-05T00:14:41;1.90;30.30
326;DHT22;150;52.352;14.058;2023-04-05T00:17:08;1.80;30.30
326;DHT22;150;52.352;14.058;2023-04-05T00:19:35;1.80;30.40
326;DHT22;150;52.352;14.058;2023-04-05T00:22:02;1.80;30.60
326;DHT22;150;52.352;14.058;2023-04-05T00:24:29;1.70;30.70
326;DHT22;150;52.352;14.058;2023-04-05T00:26:58;1.70;30.60
326;DHT22;150;52.352;14.058;2023-04-05T00:29:26;1.70;30.20
326;DHT22;150;52.352;14.058;2023-04-05T00:31:53;1.70;30.10
326;DHT22;150;52.352;14.058;2023-04-05T00:34:20;1.60;30.00
326;DHT22;150;52.352;14.058;2023-04-05T00:36:47;1.60;29.90
326;DHT22;150;52.352;14.058;2023-04-05T00:39:14;1.60;30.40
326;DHT22;150;52.352;14.058;2023-04-05T00:41:40;1.70;29.90
326;DHT22;150;52.352;14.058;2023-04-05T00:44:08;1.60;29.90
326;DHT22;150;52.352;14.058;2023-04-05T00:46:38;1.60;29.90
326;DHT22;150;52.352;14.058;2023-04-05T00:49:05;1.60;30.00
326;DHT22;150;52.352;14.058;2023-04-05T00:51:32;1.60;30.20
326;DHT22;150;52.352;14.058;2023-04-05T00:54:00;1.70;30.30
326;DHT22;150;52.352;14.058;2023-04-05T00:56:28;1.70;30.10
326;DHT22;150;52.352;14.058;2023-04-05T00:58:55;1.70;29.90
326;DHT22;150;52.352;14.058;2023-04-05T01:01:23;1.80;29.80
326;DHT22;150;52.352;14.058;2023-04-05T01:03:54;1.80;29.50
326;DHT22;150;52.352;14.058;2023-04-05T01:06:35;1.80;29.80
326;DHT22;150;52.352;14.058;2023-04-05T01:09:11;1.80;30.10
326;DHT22;150;52.352;14.058;2023-04-05T01:11:39;1.90;29.60
326;DHT22;150;52.352;14.058;2023-04-05T01:14:08;1.90;29.70
326;DHT22;150;52.352;14.058;2023-04-05T01:16:34;1.90;29.50
326;DHT22;150;52.352;14.058;2023-04-05T01:19:02;1.90;29.50
326;DHT22;150;52.352;14.058;2023-04-05T01:21:55;2.00;29.50
326;DHT22;150;52.352;14.058;2023-04-05T01:24:48;2.00;29.50
326;DHT22;150;52.352;14.058;2023-04-05T01:27:21;2.00;29.70
326;DHT22;150;52.352;14.058;2023-04-05T01:29:55;2.10;29.90
326;DHT22;150;52.352;14.058;2023-04-05T01:32:36;2.10;30.00
326;DHT22;150;52.352;14.058;2023-04-05T01:35:11;2.10;30.00
326;DHT22;150;52.352;14.058;2023-04-05T01:37:44;2.10;29.90
326;DHT22;150;52.352;14.058;2023-04-05T01:40:13;2.20;30.00
326;DHT22;150;52.352;14.058;2023-04-05T01:42:43;2.20;30.00
326;DHT22;150;52.352;14.058;2023-04-05T01:45:12;2.20;29.80
326;DHT22;150;52.352;14.058;2023-04-05T01:47:39;2.30;29.90
326;DHT22;150;52.352;14.058;2023-04-05T01:50:07;2.30;30.00
326;DHT22;150;52.352;14.058;2023-04-05T01:52:34;2.30;29.80
326;DHT22;150;52.352;14.058;2023-04-05T01:55:00;2.30;30.00
326;DHT22;150;52.352;14.058;2023-04-05T01:57:27;2.40;30.10
326;DHT22;150;52.352;14.058;2023-04-05T01:59:54;2.40;30.00
326;DHT22;150;52.352;14.058;2023-04-05T02:02:22;2.40;30.10
326;DHT22;150;52.352;14.058;2023-04-05T02:04:49;2.40;30.00
326;DHT22;150;52.352;14.058;2023-04-05T02:07:15;2.50;29.90
326;DHT22;150;52.352;14.058;2023-04-05T02:09:42;2.50;30.00
326;DHT22;150;52.352;14.058;2023-04-05T02:12:09;2.50;30.20
326;DHT22;150;52.352;14.058;2023-04-05T02:14:36;2.60;29.90
326;DHT22;150;52.352;14.058;2023-04-05T02:17:03;2.60;29.60
326;DHT22;150;52.352;14.058;2023-04-05T02:19:31;2.60;29.80
326;DHT22;150;52.352;14.058;2023-04-05T02:22:02;2.60;30.20
326;DHT22;150;52.352;14.058;2023-04-05T02:24:28;2.60;30.00
326;DHT22;150;52.352;14.058;2023-04-05T02:26:55;2.70;30.30
326;DHT22;150;52.352;14.058;2023-04-05T02:29:22;2.70;30.50
326;DHT22;150;52.352;14.058;2023-04-05T02:31:48;2.70;30.50
326;DHT22;150;52.352;14.058;2023-04-05T02:34:15;2.70;29.80
326;DHT22;150;52.352;14.058;2023-04-05T02:36:43;2.80;29.70
326;DHT22;150;52.352;14.058;2023-04-05T02:39:13;2.80;29.50
326;DHT22;150;52.352;14.058;2023-04-05T02:41:39;2.80;29.70
326;DHT22;150;52.352;14.058;2023-04-05T02:44:06;2.80;29.80
326;DHT22;150;52.352;14.058;2023-04-05T02:46:33;2.80;30.00
326;DHT22;150;52.352;14.058;2023-04-05T02:48:59;2.90;30.00
326;DHT22;150;52.352;14.058;2023-04-05T02:51:26;2.90;29.50
326;DHT22;150;52.352;14.058;2023-04-05T02:53:54;3.00;29.60
326;DHT22;150;52.352;14.058;2023-04-05T02:56:20;3.00;29.50
326;DHT22;150;52.352;14.058;2023-04-05T02:58:49;3.00;29.20
326;DHT22;150;52.352;14.058;2023-04-05T03:01:16;3.00;29.10
326;DHT22;150;52.352;14.058;2023-04-05T03:03:43;3.00;28.50
326;DHT22;150;52.352;14.058;2023-04-05T03:06:09;3.10;28.30
326;DHT22;150;52.352;14.058;2023-04-05T03:08:36;3.10;28.40
326;DHT22;150;52.352;14.058;2023-04-05T03:11:05;3.20;28.40
326;DHT22;150;52.352;14.058;2023-04-05T03:13:32;3.20;28.40
326;DHT22;150;52.352;14.058;2023-04-05T03:15:59;3.30;28.50
326;DHT22;150;52.352;14.058;2023-04-05T03:18:26;3.30;28.50
326;DHT22;150;52.352;14.058;2023-04-05T03:20:54;3.40;28.40
326;DHT22;150;52.352;14.058;2023-04-05T03:23:26;3.40;27.60
326;DHT22;150;52.352;14.058;2023-04-05T03:25:54;3.50;27.60
326;DHT22;150;52.352;14.058;2023-04-05T03:28:23;3.50;27.40
326;DHT22;150;52.352;14.058;2023-04-05T03:30:50;3.50;27.10
326;DHT22;150;52.352;14.058;2023-04-05T03:33:17;3.60;27.00
326;DHT22;150;52.352;14.058;2023-04-05T03:35:44;3.60;27.10
326;DHT22;150;52.352;14.058;2023-04-05T03:38:10;3.60;26.80
326;DHT22;150;52.352;14.058;2023-04-05T03:40:37;3.60;26.10
326;DHT22;150;52.352;14.058;2023-04-05T03:43:04;3.70;26.40
326;DHT22;150;52.352;14.058;2023-04-05T03:45:32;3.70;26.40
326;DHT22;150;52.352;14.058;2023-04-05T03:47:59;3.70;26.50
326;DHT22;150;52.352;14.058;2023-04-05T03:50:26;3.70;26.30
326;DHT22;150;52.352;14.058;2023-04-05T03:52:53;3.70;26.10
326;DHT22;150;52.352;14.058;2023-04-05T03:55:19;3.70;26.00
326;DHT22;150;52.352;14.058;2023-04-05T03:57:46;3.70;26.00
326;DHT22;150;52.352;14.058;2023-04-05T04:00:13;3.80;25.80
326;DHT22;150;52.352;14.058;2023-04-05T04:02:44;3.80;25.90
326;DHT22;150;52.352;14.058;2023-04-05T04:05:12;3.80;25.70
326;DHT22;150;52.352;14.058;2023-04-05T04:07:39;3.80;25.50
326;DHT22;150;52.352;14.058;2023-04-05T04:10:07;3.80;25.50
326;DHT22;150;52.352;14.058;2023-04-05T04:12:34;3.80;25.40
326;DHT22;150;52.352;14.058;2023-04-05T04:15:01;3.80;25.60
326;DHT22;150;52.352;14.058;2023-04-05T04:17:29;3.80;25.40
326;DHT22;150;52.352;14.058;2023-04-05T04:19:58;3.70;25.80
326;DHT22;150;52.352;14.058;2023-04-05T04:22:25;3.80;25.80
326;DHT22;150;52.352;14.058;2023-04-05T04:24:57;3.70;24.90
326;DHT22;150;52.352;14.058;2023-04-05T04:27:27;3.70;25.40
326;DHT22;150;52.352;14.058;2023-04-05T04:29:54;3.70;25.70
326;DHT22;150;52.352;14.058;2023-04-05T04:32:27;3.70;25.80
326;DHT22;150;52.352;14.058;2023-04-05T04:35:13;3.70;26.30
326;DHT22;150;52.352;14.058;2023-04-05T04:37:44;3.80;25.90
326;DHT22;150;52.352;14.058;2023-04-05T04:40:13;3.80;25.70
326;DHT22;150;52.352;14.058;2023-04-05T04:42:41;3.80;26.00
326;DHT22;150;52.352;14.058;2023-04-05T04:45:11;3.80;26.30
326;DHT22;150;52.352;14.058;2023-04-05T04:47:40;3.80;26.30
326;DHT22;150;52.352;14.058;2023-04-05T04:50:08;3.80;26.40
326;DHT22;150;52.352;14.058;2023-04-05T04:52:37;3.80;26.10
326;DHT22;150;52.352;14.058;2023-04-05T04:55:05;3.80;25.90
326;DHT22;150;52.352;14.058;2023-04-05T04:57:32;3.80;26.30
326;DHT22;150;52.352;14.058;2023-04-05T05:00:00;3.90;26.20
326;DHT22;150;52.352;14.058;2023-04-05T05:02:32;3.80;26.30
326;DHT22;150;52.352;14.058;2023-04-05T05:04:58;3.90;26.50
326;DHT22;150;52.352;14.058;2023-04-05T05:07:25;3.90;26.40
326;DHT22;150;52.352;14.058;2023-04-05T05:09:53;3.90;26.60
326;DHT22;150;52.352;14.058;2023-04-05T05:12:20;4.00;26.50
326;DHT22;150;52.352;14.058;2023-04-05T05:14:50;4.00;26.70
326;DHT22;150;52.352;14.058;2023-04-05T05:17:17;4.00;26.70
326;DHT22;150;52.352;14.058;2023-04-05T05:19:44;4.10;26.70
326;DHT22;150;52.352;14.058;2023-04-05T05:22:11;4.10;26.70
326;DHT22;150;52.352;14.058;2023-04-05T05:24:37;4.10;26.50
326;DHT22;150;52.352;14.058;2023-04-05T05:27:05;4.10;26.60
326;DHT22;150;52.352;14.058;2023-04-05T05:29:32;4.20;26.20
326;DHT22;150;52.352;14.058;2023-04-05T05:31:59;4.20;26.10
326;DHT22;150;52.352;14.058;2023-04-05T05:34:25;4.10;26.30
326;DHT22;150;52.352;14.058;2023-04-05T05:36:53;4.20;26.10
326;DHT22;150;52.352;14.058;2023-04-05T05:39:20;4.20;26.20
326;DHT22;150;52.352;14.058;2023-04-05T05:41:48;4.20;26.50
326;DHT22;150;52.352;14.058;2023-04-05T05:44:16;4.30;26.30
326;DHT22;150;52.352;14.058;2023-04-05T05:46:43;4.30;26.30
326;DHT22;150;52.352;14.058;2023-04-05T05:49:09;4.40;26.10
326;DHT22;150;52.352;14.058;2023-04-05T05:51:36;4.40;26.10
326;DHT22;150;52.352;14.058;2023-04-05T05:54:03;4.40;26.30
326;DHT22;150;52.352;14.058;2023-04-05T05:56:30;4.50;26.20
326;DHT22;150;52.352;14.058;2023-04-05T05:58:56;4.70;26.30
326;DHT22;150;52.352;14.058;2023-04-05T06:01:25;4.80;25.90
326;DHT22;150;52.352;14.058;2023-04-05T06:03:53;4.80;24.80
326;DHT22;150;52.352;14.058;2023-04-05T06:06:20;4.60;25.10
326;DHT22;150;52.352;14.058;2023-04-05T06:08:46;4.60;25.70
326;DHT22;150;52.352;14.058;2023-04-05T06:11:17;4.70;25.80
326;DHT22;150;52.352;14.058;2023-04-05T06:13:44;4.80;26.10
326;DHT22;150;52.352;14.058;2023-04-05T06:16:11;4.90;25.90
326;DHT22;150;52.352;14.058;2023-04-05T06:18:39;5.00;26.00
326;DHT22;150;52.352;14.058;2023-04-05T06:21:06;5.10;25.90
326;DHT22;150;52.352;14.058;2023-04-05T06:23:33;5.20;25.50
326;DHT22;150;52.352;14.058;2023-04-05T06:26:00;5.30;25.10
326;DHT22;150;52.352;14.058;2023-04-05T06:28:27;5.30;24.30
326;DHT22;150;52.352;14.058;2023-04-05T06:30:56;5.50;24.90
326;DHT22;150;52.352;14.058;2023-04-05T06:33:23;5.50;24.90
326;DHT22;150;52.352;14.058;2023-04-05T06:35:51;5.60;25.10
326;DHT22;150;52.352;14.058;2023-04-05T06:38:18;5.70;24.10
326;DHT22;150;52.352;14.058;2023-04-05T06:40:45;5.80;24.40
326;DHT22;150;52.352;14.058;2023-04-05T06:43:11;6.00;24.30
326;DHT22;150;52.352;14.058;2023-04-05T06:45:38;6.00;23.80
326;DHT22;150;52.352;14.058;2023-04-05T06:48:05;6.20;23.80
326;DHT22;150;52.352;14.058;2023-04-05T06:50:32;6.30;22.70
326;DHT22;150;52.352;14.058;2023-04-05T06:53:01;6.50;23.40
326;DHT22;150;52.352;14.058;2023-04-05T06:55:28;6.60;22.60
326;DHT22;150;52.352;14.058;2023-04-05T06:57:54;6.80;22.90
326;DHT22;150;52.352;14.058;2023-04-05T07:00:21;6.90;22.70
326;DHT22;150;52.352;14.058;2023-04-05T07:02:48;7.00;22.30
326;DHT22;150;52.352;14.058;2023-04-05T07:05:15;7.10;21.40
326;DHT22;150;52.352;14.058;2023-04-05T07:07:42;7.20;21.70
326;DHT22;150;52.352;14.058;2023-04-05T07:10:11;7.30;21.70
326;DHT22;150;52.352;14.058;2023-04-05T07:12:38;7.40;21.40
326;DHT22;150;52.352;14.058;2023-04-05T07:15:06;7.50;21.50
326;DHT22;150;52.352;14.058;2023-04-05T07:17:33;7.40;21.00
326;DHT22;150;52.352;14.058;2023-04-05T07:20:00;7.50;21.30
326;DHT22;150;52.352;14.058;2023-04-05T07:22:26;7.40;21.20
326;DHT22;150;52.352;14.058;2023-04-05T07:24:53;7.40;21.60
326;DHT22;150;52.352;14.058;2023-04-05T07:27:21;7.30;21.90
326;DHT22;150;52.352;14.058;2023-04-05T07:29:48;7.20;22.00
326;DHT22;150;52.352;14.058;2023-04-05T07:32:15;7.00;22.30
326;DHT22;150;52.352;14.058;2023-04-05T07:34:41;7.00;22.30
326;DHT22;150;52.352;14.058;2023-04-05T07:37:08;7.20;22.50
326;DHT22;150;52.352;14.058;2023-04-05T07:39:34;6.70;22.10
326;DHT22;150;52.352;14.058;2023-04-05T07:42:01;6.70;22.90
326;DHT22;150;52.352;14.058;2023-04-05T07:44:29;6.80;22.70
326;DHT22;150;52.352;14.058;2023-04-05T07:46:56;6.90;23.20
326;DHT22;150;52.352;14.058;2023-04-05T07:49:26;7.00;22.70
326;DHT22;150;52.352;14.058;2023-04-05T07:51:54;6.80;23.20
326;DHT22;150;52.352;14.058;2023-04-05T07:54:21;6.80;23.20
326;DHT22;150;52.352;14.058;2023-04-05T07:56:48;7.00;23.50
326;DHT22;150;52.352;14.058;2023-04-05T07:59:15;7.20;23.60
326;DHT22;150;52.352;14.058;2023-04-05T08:01:43;7.20;23.30
326;DHT22;150;52.352;14.058;2023-04-05T08:04:09;7.30;22.90
326;DHT22;150;52.352;14.058;2023-04-05T08:06:38;7.40;22.60
326;DHT22;150;52.352;14.058;2023-04-05T08:09:06;7.40;22.60
326;DHT22;150;52.352;14.058;2023-04-05T08:11:35;7.50;22.70
326;DHT22;150;52.352;14.058;2023-04-05T08:14:01;7.70;22.80
326;DHT22;150;52.352;14.058;2023-04-05T08:16:31;7.70;22.80
326;DHT22;150;52.352;14.058;2023-04-05T08:19:00;7.80;22.80
326;DHT22;150;52.352;14.058;2023-04-05T08:21:27;7.70;22.80
326;DHT22;150;52.352;14.058;2023-04-05T08:23:54;7.80;22.80
326;DHT22;150;52.352;14.058;2023-04-05T08:26:20;7.80;22.80
326;DHT22;150;52.352;14.058;2023-04-05T08:28:48;7.70;21.60
326;DHT22;150;52.352;14.058;2023-04-05T08:31:14;7.70;21.80
326;DHT22;150;52.352;14.058;2023-04-05T08:33:41;7.80;21.20
326;DHT22;150;52.352;14.058;2023-04-05T08:36:09;7.90;21.20
326;DHT22;150;52.352;14.058;2023-04-05T08:38:37;7.80;20.40
326;DHT22;150;52.352;14.058;2023-04-05T08:41:16;7.80;21.20
326;DHT22;150;52.352;14.058;2023-04-05T08:43:54;7.70;20.50
326;DHT22;150;52.352;14.058;2023-04-05T08:46:24;7.60;21.30
326;DHT22;150;52.352;14.058;2023-04-05T08:48:51;7.60;21.40
326;DHT22;150;52.352;14.058;2023-04-05T08:51:21;7.60;21.30
326;DHT22;150;52.352;14.058;2023-04-05T08:53:48;7.60;21.90
326;DHT22;150;52.352;14.058;2023-04-05T08:56:18;7.80;22.80
326;DHT22;150;52.352;14.058;2023-04-05T08:58:50;7.70;21.60
326;DHT22;150;52.352;14.058;2023-04-05T09:01:19;7.80;22.20
326;DHT22;150;52.352;14.058;2023-04-05T09:03:48;7.90;21.90
326;DHT22;150;52.352;14.058;2023-04-05T09:06:17;7.90;21.60
326;DHT22;150;52.352;14.058;2023-04-05T09:08:47;8.00;22.20
326;DHT22;150;52.352;14.058;2023-04-05T09:11:14;7.80;22.80
326;DHT22;150;52.352;14.058;2023-04-05T09:13:42;7.70;22.00
326;DHT22;150;52.352;14.058;2023-04-05T09:16:09;7.80;22.80
326;DHT22;150;52.352;14.058;2023-04-05T09:18:35;8.00;22.40
326;DHT22;150;52.352;14.058;2023-04-05T09:21:02;8.00;22.50
326;DHT22;150;52.352;14.058;2023-04-05T09:23:30;8.20;22.00
326;DHT22;150;52.352;14.058;2023-04-05T09:25:58;8.20;21.60
326;DHT22;150;52.352;14.058;2023-04-05T09:28:39;8.10;21.70
326;DHT22;150;52.352;14.058;2023-04-05T09:31:07;8.00;21.90
326;DHT22;150;52.352;14.058;2023-04-05T09:33:34;8.10;21.90
326;DHT22;150;52.352;14.058;2023-04-05T09:36:01;7.90;21.40
326;DHT22;150;52.352;14.058;2023-04-05T09:38:44;7.80;21.80
326;DHT22;150;52.352;14.058;2023-04-05T09:41:13;7.80;22.50
326;DHT22;150;52.352;14.058;2023-04-05T09:43:41;7.90;22.00
326;DHT22;150;52.352;14.058;2023-04-05T09:46:29;8.20;22.20
326;DHT22;150;52.352;14.058;2023-04-05T09:48:56;8.50;22.50
326;DHT22;150;52.352;14.058;2023-04-05T09:51:31;8.80;21.50
326;DHT22;150;52.352;14.058;2023-04-05T09:54:00;9.10;21.10
326;DHT22;150;52.352;14.058;2023-04-05T09:56:30;9.60;20.60
326;DHT22;150;52.352;14.058;2023-04-05T09:59:01;9.40;19.80
326;DHT22;150;52.352;14.058;2023-04-05T10:01:30;9.70;19.60
326;DHT22;150;52.352;14.058;2023-04-05T10:04:01;9.40;18.50
326;DHT22;150;52.352;14.058;2023-04-05T10:06:36;9.10;19.60
326;DHT22;150;52.352;14.058;2023-04-05T10:09:09;9.70;21.20
326;DHT22;150;52.352;14.058;2023-04-05T10:11:43;10.00;18.70
326;DHT22;150;52.352;14.058;2023-04-05T10:14:10;10.10;17.80
326;DHT22;150;52.352;14.058;2023-04-05T10:16:40;10.20;17.20
326;DHT22;150;52.352;14.058;2023-04-05T10:19:25;9.50;18.90
326;DHT22;150;52.352;14.058;2023-04-05T10:21:53;9.20;19.10
326;DHT22;150;52.352;14.058;2023-04-05T10:24:32;8.90;19.20
326;DHT22;150;52.352;14.058;2023-04-05T10:27:05;8.80;19.60
326;DHT22;150;52.352;14.058;2023-04-05T10:29:41;8.30;20.20
326;DHT22;150;52.352;14.058;2023-04-05T10:32:14;8.00;21.20
326;DHT22;150;52.352;14.058;2023-04-05T10:34:56;8.00;21.40
326;DHT22;150;52.352;14.058;2023-04-05T10:37:35;8.00;22.30
326;DHT22;150;52.352;14.058;2023-04-05T10:40:07;8.10;21.90
326;DHT22;150;52.352;14.058;2023-04-05T10:42:48;8.30;22.40
326;DHT22;150;52.352;14.058;2023-04-05T10:45:18;8.10;21.90
326;DHT22;150;52.352;14.058;2023-04-05T10:47:54;8.30;22.40
326;DHT22;150;52.352;14.058;2023-04-05T10:50:24;8.70;22.10
326;DHT22;150;52.352;14.058;2023-04-05T10:52:51;9.10;21.00
326;DHT22;150;52.352;14.058;2023-04-05T10:55:24;9.10;20.80
326;DHT22;150;52.352;14.058;2023-04-05T10:57:53;9.10;20.90
326;DHT22;150;52.352;14.058;2023-04-05T11:00:27;9.30;21.30
326;DHT22;150;52.352;14.058;2023-04-05T11:02:53;9.50;20.50
326;DHT22;150;52.352;14.058;2023-04-05T11:05:30;9.80;19.70
326;DHT22;150;52.352;14.058;2023-04-05T11:07:59;10.20;18.80
326;DHT22;150;52.352;14.058;2023-04-05T11:10:28;10.70;19.30
326;DHT22;150;52.352;14.058;2023-04-05T11:13:07;10.70;16.90
326;DHT22;150;52.352;14.058;2023-04-05T11:15:35;10.90;17.70
326;DHT22;150;52.352;14.058;2023-04-05T11:18:20;11.00;17.10
326;DHT22;150;52.352;14.058;2023-04-05T11:21:05;11.10;16.70
326;DHT22;150;52.352;14.058;2023-04-05T11:24:00;10.70;17.70
326;DHT22;150;52.352;14.058;2023-04-05T11:26:53;10.60;17.80
326;DHT22;150;52.352;14.058;2023-04-05T11:33:35;10.20;17.50
326;DHT22;150;52.352;14.058;2023-04-05T11:36:07;10.30;18.30
326;DHT22;150;52.352;14.058;2023-04-05T11:38:35;10.30;18.30
326;DHT22;150;52.352;14.058;2023-04-05T11:41:06;10.40;18.90
326;DHT22;150;52.352;14.058;2023-04-05T11:43:42;10.60;18.10
326;DHT22;150;52.352;14.058;2023-04-05T11:46:09;10.60;17.50
326;DHT22;150;52.352;14.058;2023-04-05T11:48:39;10.60;17.70
326;DHT22;150;52.352;14.058;2023-04-05T11:51:08;10.70;18.30
326;DHT22;150;52.352;14.058;2023-04-05T11:53:35;10.80;18.00
326;DHT22;150;52.352;14.058;2023-04-05T11:56:07;10.90;17.40
326;DHT22;150;52.352;14.058;2023-04-05T11:58:44;10.70;16.80
326;DHT22;150;52.352;14.058;2023-04-05T12:01:11;10.50;16.90
326;DHT22;150;52.352;14.058;2023-04-05T12:03:39;10.50;17.80
326;DHT22;150;52.352;14.058;2023-04-05T12:06:06;10.20;17.50
326;DHT22;150;52.352;14.058;2023-04-05T12:08:42;10.00;18.20
326;DHT22;150;52.352;14.058;2023-04-05T12:11:15;10.30;18.50
326;DHT22;150;52.352;14.058;2023-04-05T12:13:55;10.40;17.20
326;DHT22;150;52.352;14.058;2023-04-05T12:16:26;10.50;17.30
326;DHT22;150;52.352;14.058;2023-04-05T12:18:55;10.40;17.50
326;DHT22;150;52.352;14.058;2023-04-05T12:21:23;9.70;18.40
326;DHT22;150;52.352;14.058;2023-04-05T12:23:51;9.80;19.80
326;DHT22;150;52.352;14.058;2023-04-05T12:26:18;10.00;19.00
326;DHT22;150;52.352;14.058;2023-04-05T12:28:49;10.20;18.90
326;DHT22;150;52.352;14.058;2023-04-05T12:31:16;10.50;18.40
326;DHT22;150;52.352;14.058;2023-04-05T12:33:43;10.70;18.20
326;DHT22;150;52.352;14.058;2023-04-05T12:36:14;10.90;17.90
326;DHT22;150;52.352;14.058;2023-04-05T12:38:41;11.10;17.90
326;DHT22;150;52.352;14.058;2023-04-05T12:41:07;10.90;16.30
326;DHT22;150;52.352;14.058;2023-04-05T12:43:38;10.80;16.90
326;DHT22;150;52.352;14.058;2023-04-05T12:46:08;10.90;16.60
326;DHT22;150;52.352;14.058;2023-04-05T12:48:36;10.80;15.90
326;DHT22;150;52.352;14.058;2023-04-05T12:51:14;10.90;16.60
326;DHT22;150;52.352;14.058;2023-04-05T12:53:44;10.40;15.60
326;DHT22;150;52.352;14.058;2023-04-05T12:56:15;9.90;17.50
326;DHT22;150;52.352;14.058;2023-04-05T12:58:42;10.30;17.00
326;DHT22;150;52.352;14.058;2023-04-05T13:01:09;10.30;16.00
326;DHT22;150;52.352;14.058;2023-04-05T13:03:42;10.40;16.80
326;DHT22;150;52.352;14.058;2023-04-05T13:06:09;10.30;16.80
326;DHT22;150;52.352;14.058;2023-04-05T13:08:40;9.70;17.40
326;DHT22;150;52.352;14.058;2023-04-05T13:11:06;9.50;17.30
326;DHT22;150;52.352;14.058;2023-04-05T13:13:33;9.30;17.90
326;DHT22;150;52.352;14.058;2023-04-05T13:16:02;9.60;17.80
326;DHT22;150;52.352;14.058;2023-04-05T13:18:29;9.80;18.10
326;DHT22;150;52.352;14.058;2023-04-05T13:20:56;10.00;17.30
326;DHT22;150;52.352;14.058;2023-04-05T13:23:25;9.70;17.30
326;DHT22;150;52.352;14.058;2023-04-05T13:25:53;9.60;17.70
326;DHT22;150;52.352;14.058;2023-04-05T13:28:20;9.50;18.30
326;DHT22;150;52.352;14.058;2023-04-05T13:30:50;9.30;18.50
326;DHT22;150;52.352;14.058;2023-04-05T13:33:16;9.00;20.20
326;DHT22;150;52.352;14.058;2023-04-05T13:35:43;9.20;19.90
326;DHT22;150;52.352;14.058;2023-04-05T13:38:10;9.50;20.00
326;DHT22;150;52.352;14.058;2023-04-05T13:40:37;9.70;18.60
326;DHT22;150;52.352;14.058;2023-04-05T13:43:14;9.90;18.00
326;DHT22;150;52.352;14.058;2023-04-05T13:45:41;10.10;17.10
326;DHT22;150;52.352;14.058;2023-04-05T13:48:07;9.50;17.60
326;DHT22;150;52.352;14.058;2023-04-05T13:50:37;8.90;19.20
326;DHT22;150;52.352;14.058;2023-04-05T13:53:04;9.20;19.20
326;DHT22;150;52.352;14.058;2023-04-05T13:55:33;9.20;18.80
326;DHT22;150;52.352;14.058;2023-04-05T13:58:01;8.90;18.40
326;DHT22;150;52.352;14.058;2023-04-05T14:00:29;8.80;19.50
326;DHT22;150;52.352;14.058;2023-04-05T14:02:55;8.90;19.50
326;DHT22;150;52.352;14.058;2023-04-05T14:05:22;9.00;19.50
326;DHT22;150;52.352;14.058;2023-04-05T14:07:49;9.10;19.50
326;DHT22;150;52.352;14.058;2023-04-05T14:10:16;9.00;19.90
326;DHT22;150;52.352;14.058;2023-04-05T14:12:45;9.00;19.40
326;DHT22;150;52.352;14.058;2023-04-05T14:15:12;9.10;19.90
326;DHT22;150;52.352;14.058;2023-04-05T14:17:40;9.20;19.50
326;DHT22;150;52.352;14.058;2023-04-05T14:20:07;9.10;19.40
326;DHT22;150;52.352;14.058;2023-04-05T14:22:34;9.00;19.60
326;DHT22;150;52.352;14.058;2023-04-05T14:25:01;9.00;18.90
326;DHT22;150;52.352;14.058;2023-04-05T14:27:33;9.00;18.30
326;DHT22;150;52.352;14.058;2023-04-05T14:30:02;9.10;19.10
326;DHT22;150;52.352;14.058;2023-04-05T14:32:34;9.10;18.80
326;DHT22;150;52.352;14.058;2023-04-05T14:35:03;9.20;18.20
326;DHT22;150;52.352;14.058;2023-04-05T14:37:29;9.10;18.10
326;DHT22;150;52.352;14.058;2023-04-05T14:39:57;9.10;18.70
326;DHT22;150;52.352;14.058;2023-04-05T14:42:24;9.10;18.10
326;DHT22;150;52.352;14.058;2023-04-05T14:44:52;9.00;17.80
326;DHT22;150;52.352;14.058;2023-04-05T14:47:19;9.00;18.00
326;DHT22;150;52.352;14.058;2023-04-05T14:49:46;8.90;18.50
326;DHT22;150;52.352;14.058;2023-04-05T14:52:14;8.90;18.40
326;DHT22;150;52.352;14.058;2023-04-05T14:54:43;8.70;18.90
326;DHT22;150;52.352;14.058;2023-04-05T14:57:10;8.70;17.90
326;DHT22;150;52.352;14.058;2023-04-05T14:59:38;8.70;18.50
326;DHT22;150;52.352;14.058;2023-04-05T15:02:05;8.70;18.20
326;DHT22;150;52.352;14.058;2023-04-05T15:04:32;8.70;18.00
326;DHT22;150;52.352;14.058;2023-04-05T15:06:59;8.70;18.20
326;DHT22;150;52.352;14.058;2023-04-05T15:09:29;8.70;18.10
326;DHT22;150;52.352;14.058;2023-04-05T15:11:56;8.80;18.90
326;DHT22;150;52.352;14.058;2023-04-05T15:14:22;9.00;18.30
326;DHT22;150;52.352;14.058;2023-04-05T15:16:49;9.30;18.10
326;DHT22;150;52.352;14.058;2023-04-05T15:19:16;9.60;18.10
326;DHT22;150;52.352;14.058;2023-04-05T15:21:43;9.90;18.10
326;DHT22;150;52.352;14.058;2023-04-05T15:24:10;10.30;15.00
326;DHT22;150;52.352;14.058;2023-04-05T15:26:38;10.40;15.00
326;DHT22;150;52.352;14.058;2023-04-05T15:29:05;10.60;15.20
326;DHT22;150;52.352;14.058;2023-04-05T15:31:32;10.90;15.40
326;DHT22;150;52.352;14.058;2023-04-05T15:33:59;11.00;14.20
326;DHT22;150;52.352;14.058;2023-04-05T15:36:26;11.00;15.00
326;DHT22;150;52.352;14.058;2023-04-05T15:38:53;11.00;14.70
326;DHT22;150;52.352;14.058;2023-04-05T15:41:22;10.80;14.40
326;DHT22;150;52.352;14.058;2023-04-05T15:43:50;10.70;14.30
326;DHT22;150;52.352;14.058;2023-04-05T15:46:17;10.50;14.10
326;DHT22;150;52.352;14.058;2023-04-05T15:48:43;10.20;13.70
326;DHT22;150;52.352;14.058;2023-04-05T15:51:10;10.10;14.10
326;DHT22;150;52.352;14.058;2023-04-05T15:53:37;9.80;15.40
326;DHT22;150;52.352;14.058;2023-04-05T15:56:04;9.70;15.30
326;DHT22;150;52.352;14.058;2023-04-05T15:58:31;9.50;15.20
326;DHT22;150;52.352;14.058;2023-04-05T16:00:59;9.30;15.60
326;DHT22;150;52.352;14.058;2023-04-05T16:03:26;9.30;15.40
326;DHT22;150;52.352;14.058;2023-04-05T16:05:55;9.30;15.90
326;DHT22;150;52.352;14.058;2023-04-05T16:08:22;9.40;15.90
326;DHT22;150;52.352;14.058;2023-04-05T16:10:49;9.60;15.20
326;DHT22;150;52.352;14.058;2023-04-05T16:13:16;9.80;15.70
326;DHT22;150;52.352;14.058;2023-04-05T16:15:42;9.90;14.90
326;DHT22;150;52.352;14.058;2023-04-05T16:18:10;10.00;14.80
326;DHT22;150;52.352;14.058;2023-04-05T16:20:38;10.10;14.00
326;DHT22;150;52.352;14.058;2023-04-05T16:23:10;10.00;14.30
326;DHT22;150;52.352;14.058;2023-04-05T16:25:37;10.10;14.80
326;DHT22;150;52.352;14.058;2023-04-05T16:28:05;10.20;14.40
326;DHT22;150;52.352;14.058;2023-04-05T16:30:32;10.30;14.60
326;DHT22;150;52.352;14.058;2023-04-05T16:33:00;10.10;14.80
326;DHT22;150;52.352;14.058;2023-04-05T16:35:30;9.90;15.60
326;DHT22;150;52.352;14.058;2023-04-05T16:37:57;9.90;16.30
326;DHT22;150;52.352;14.058;2023-04-05T16:40:24;10.00;15.40
326;DHT22;150;52.352;14.058;2023-04-05T16:42:51;9.90;15.80
326;DHT22;150;52.352;14.058;2023-04-05T16:45:18;9.90;15.50
326;DHT22;150;52.352;14.058;2023-04-05T16:47:45;9.90;16.00